Time;durP1;ratioP1;P1;durP2;ratioP2;P2;SDS_P1;SDS_P2;PMS_P1;PMS_P2;Temp;Humidity;BMP_temperature;BMP_pressure;BME280_temperature;BME280_humidity;BME280_pressure;Samples;Min_cycle;Max_cycle;Signal;HPM_P1;HPM_P2
2022/01/31 00:02:23;;;;;;;17.50;1.50;;;;;;;1.63;47.30;101218.91;5020129;28;20357;-72
2022/01/31 00:04:49;;;;;;;17.70;1.92;;;;;;;1.14;48.56;101206.66;5021317;28;20064;-73
2022/01/31 00:07:14;;;;;;;17.08;2.05;;;;;;;1.08;48.63;101194.66;5023818;28;20234;-72
2022/01/31 00:09:42;;;;;;;23.40;1.42;;;;;;;1.29;47.96;101195.59;5019338;28;20049;-73
2022/01/31 00:12:13;;;;;;;27.13;2.17;;;;;;;1.71;47.06;101194.88;5024085;28;20029;-72
2022/01/31 00:14:48;;;;;;;14.32;1.55;;;;;;;1.68;47.14;101179.38;5018533;28;20076;-70
2022/01/31 00:17:14;;;;;;;14.32;1.48;;;;;;;1.67;47.07;101179.41;5023391;28;20121;-72
2022/01/31 00:19:42;;;;;;;24.67;2.95;;;;;;;1.07;48.34;101185.19;5021644;28;20044;-73
2022/01/31 00:22:09;;;;;;;26.27;1.77;;;;;;;1.32;48.14;101174.97;5025882;28;20393;-72
2022/01/31 00:24:35;;;;;;;15.50;1.90;;;;;;;0.58;49.69;101174.63;5021825;28;20045;-71
2022/01/31 00:27:03;;;;;;;17.98;2.20;;;;;;;1.33;47.98;101161.25;5022735;28;20025;-71
2022/01/31 00:29:28;;;;;;;11.52;2.08;;;;;;;1.38;48.13;101156.13;5019801;28;20045;-71
2022/01/31 00:31:54;;;;;;;23.08;2.75;;;;;;;0.58;50.65;101146.34;5022650;28;20043;-72
2022/01/31 00:34:19;;;;;;;23.60;2.92;;;;;;;0.96;48.86;101124.22;5028156;28;20075;-73
2022/01/31 00:36:45;;;;;;;24.88;2.25;;;;;;;1.70;47.09;101108.09;5006932;28;20108;-73
2022/01/31 00:39:11;;;;;;;17.60;2.05;;;;;;;0.99;49.16;101101.06;5021599;28;20041;-72
2022/01/31 00:41:37;;;;;;;17.90;2.15;;;;;;;1.77;47.27;101090.06;5024002;28;20068;-73
2022/01/31 00:44:17;;;;;;;21.65;2.45;;;;;;;1.04;49.01;101089.94;5021301;28;20135;-72
2022/01/31 00:46:49;;;;;;;23.58;2.97;;;;;;;0.39;51.00;101090.50;5028391;28;20047;-73
2022/01/31 00:50:06;;;;;;;17.10;3.22;;;;;;;1.08;49.27;101078.78;5028550;28;20049;-74
2022/01/31 00:52:04;;;;;;;9.02;1.40;;;;;;;1.72;47.46;101065.16;5007701;28;20521;-74
2022/01/31 00:54:30;;;;;;;9.20;1.13;;;;;;;0.95;49.24;101040.13;5015797;28;20505;-73
2022/01/31 00:56:56;;;;;;;12.13;2.05;;;;;;;0.79;50.41;101037.53;5037365;28;20025;-72
2022/01/31 00:59:22;;;;;;;15.18;2.60;;;;;;;0.33;51.86;101019.34;5019292;28;20054;-71
2022/01/31 01:01:48;;;;;;;12.18;1.42;;;;;;;0.57;51.67;101013.44;4999635;28;20045;-74
2022/01/31 01:04:14;;;;;;;16.30;2.25;;;;;;;1.06;50.59;100994.66;5010527;28;20533;-72
2022/01/31 01:06:40;;;;;;;16.45;1.13;;;;;;;1.22;50.01;100982.69;5018515;28;20324;-72
2022/01/31 01:09:07;;;;;;;14.18;1.75;;;;;;;1.09;50.04;100974.94;5024262;28;20053;-72
2022/01/31 01:11:34;;;;;;;9.00;1.52;;;;;;;1.18;50.39;100962.97;5022422;28;20029;-72
2022/01/31 01:14:00;;;;;;;13.60;1.83;;;;;;;1.47;49.65;100957.84;5012402;28;20123;-72
2022/01/31 01:16:25;;;;;;;7.72;1.25;;;;;;;1.91;48.86;100944.88;5002548;28;20780;-72
2022/01/31 01:18:51;;;;;;;10.52;1.20;;;;;;;1.68;48.85;100934.59;5021584;28;20409;-72
2022/01/31 01:21:17;;;;;;;11.98;2.28;;;;;;;2.04;48.24;100924.19;5011811;28;20057;-71
2022/01/31 01:23:43;;;;;;;20.77;1.27;;;;;;;1.84;48.26;100904.50;5012930;28;20073;-71
2022/01/31 01:26:08;;;;;;;10.50;1.48;;;;;;;1.72;49.04;100889.91;5002329;28;20040;-71
2022/01/31 01:28:35;;;;;;;14.23;1.38;;;;;;;1.77;48.66;100877.03;5002082;28;20041;-71
2022/01/31 01:31:01;;;;;;;12.32;1.00;;;;;;;1.79;48.22;100857.25;4990589;28;20021;-71
2022/01/31 01:33:28;;;;;;;10.60;1.92;;;;;;;1.79;48.29;100841.78;5000598;28;20079;-71
2022/01/31 01:35:54;;;;;;;17.08;1.75;;;;;;;1.44;48.99;100832.50;4991095;28;20021;-73
2022/01/31 01:38:28;;;;;;;11.50;1.00;;;;;;;0.62;51.13;100826.53;5003340;28;20033;-72
2022/01/31 01:40:59;;;;;;;13.35;1.63;;;;;;;1.02;50.48;100821.38;5024480;28;20344;-72
2022/01/31 01:43:26;;;;;;;11.10;1.98;;;;;;;1.30;49.37;100811.00;5025990;28;20072;-72
2022/01/31 01:45:54;;;;;;;6.30;1.65;;;;;;;0.48;51.46;100802.53;4983092;28;20036;-71
2022/01/31 01:48:20;;;;;;;7.15;1.33;;;;;;;0.75;50.79;100795.66;5002772;28;20406;-71
2022/01/31 01:50:48;;;;;;;10.32;1.55;;;;;;;0.51;51.33;100771.66;5038148;28;20504;-71
2022/01/31 01:53:14;;;;;;;17.55;2.13;;;;;;;0.87;50.73;100759.63;5023121;28;20229;-71
2022/01/31 01:55:41;;;;;;;17.00;1.95;;;;;;;1.35;49.19;100762.94;5006859;28;20105;-71
2022/01/31 01:58:15;;;;;;;16.10;2.65;;;;;;;1.37;49.23;100744.91;5019406;28;20211;-72
2022/01/31 02:01:02;;;;;;;18.55;1.70;;;;;;;1.66;48.69;100739.63;5020293;28;20565;-72
2022/01/31 02:03:53;;;;;;;17.50;2.78;;;;;;;1.49;48.96;100724.28;5011429;28;20041;-72
2022/01/31 02:06:23;;;;;;;20.67;3.30;;;;;;;1.39;49.48;100717.41;5002696;28;20041;-73
2022/01/31 02:08:49;;;;;;;18.27;2.25;;;;;;;1.84;48.48;100708.63;5025495;28;20425;-73
2022/01/31 02:11:20;;;;;;;22.60;2.75;;;;;;;1.64;48.95;100692.41;5032724;28;20040;-73
2022/01/31 02:13:48;;;;;;;16.48;2.92;;;;;;;1.14;50.60;100696.91;5020003;28;20413;-73
2022/01/31 02:16:32;;;;;;;18.60;2.47;;;;;;;1.00;51.44;100684.09;5010864;28;20069;-73
2022/01/31 02:19:15;;;;;;;15.27;2.70;;;;;;;1.02;51.27;100677.25;5029936;28;20049;-72
2022/01/31 02:21:56;;;;;;;9.52;3.40;;;;;;;0.38;53.18;100661.94;5024008;28;20286;-72
2022/01/31 02:24:40;;;;;;;12.55;2.88;;;;;;;1.11;51.73;100646.31;5021566;28;20296;-72
2022/01/31 02:27:14;;;;;;;12.80;2.90;;;;;;;1.17;51.90;100631.69;5024523;28;20049;-72
2022/01/31 02:29:40;;;;;;;17.92;2.67;;;;;;;1.29;51.84;100623.91;5011440;28;20507;-71
2022/01/31 02:32:06;;;;;;;9.73;3.03;;;;;;;1.26;51.98;100613.63;4990509;28;20033;-72
2022/01/31 02:34:31;;;;;;;11.43;3.53;;;;;;;0.46;54.78;100603.66;5012768;28;20146;-72
2022/01/31 02:36:57;;;;;;;19.63;3.38;;;;;;;0.41;55.17;100601.09;5022574;28;20502;-72
2022/01/31 02:39:23;;;;;;;9.50;2.88;;;;;;;0.22;56.11;100600.28;5022210;28;20417;-70
2022/01/31 02:41:48;;;;;;;19.30;3.70;;;;;;;0.88;54.08;100583.78;5028266;28;20021;-71
2022/01/31 02:44:15;;;;;;;14.02;3.63;;;;;;;0.94;53.98;100560.59;5030517;28;20045;-71
2022/01/31 02:46:55;;;;;;;12.70;3.92;;;;;;;-0.24;57.50;100556.63;4989093;28;20030;-71
2022/01/31 02:49:25;;;;;;;23.50;4.00;;;;;;;0.68;54.90;100543.56;5021004;28;20429;-72
2022/01/31 02:51:58;;;;;;;18.65;4.30;;;;;;;0.77;54.51;100542.69;5023782;28;21452;-71
2022/01/31 02:54:24;;;;;;;20.92;5.05;;;;;;;0.79;54.48;100532.34;5011874;28;20045;-71
2022/01/31 02:56:50;;;;;;;18.95;4.53;;;;;;;0.84;54.10;100517.78;5003322;28;20953;-71
2022/01/31 02:59:16;;;;;;;8.20;3.15;;;;;;;0.79;54.38;100510.09;5014292;28;20512;-71
2022/01/31 03:01:41;;;;;;;15.38;3.97;;;;;;;0.82;54.48;100507.47;5028137;28;20040;-72
2022/01/31 03:04:07;;;;;;;28.08;4.40;;;;;;;0.60;55.25;100499.00;5022341;28;20506;-72
2022/01/31 03:06:36;;;;;;;9.02;3.42;;;;;;;0.78;54.73;100485.19;5024983;28;20033;-72
2022/01/31 03:09:02;;;;;;;15.55;4.03;;;;;;;0.18;56.98;100470.03;4978018;28;20042;-72
2022/01/31 03:11:35;;;;;;;10.07;3.92;;;;;;;0.24;55.91;100459.75;4989861;28;20037;-72
2022/01/31 03:14:04;;;;;;;17.05;3.55;;;;;;;0.24;56.69;100454.59;4987487;28;20143;-73
2022/01/31 03:16:34;;;;;;;9.88;4.10;;;;;;;-0.25;57.52;100444.47;5002890;28;20932;-73
2022/01/31 03:19:17;;;;;;;13.32;4.00;;;;;;;0.25;56.37;100440.88;4977807;28;20532;-72
2022/01/31 03:21:46;;;;;;;9.48;4.80;;;;;;;0.09;56.78;100428.97;4995274;28;20048;-73
2022/01/31 03:24:13;;;;;;;16.77;4.50;;;;;;;0.24;56.37;100408.34;4964851;28;20399;-74
2022/01/31 03:26:39;;;;;;;10.38;4.07;;;;;;;-0.04;56.86;100404.16;5003656;28;20160;-73
2022/01/31 03:29:05;;;;;;;13.68;3.83;;;;;;;-0.23;57.79;100386.25;4987190;28;20436;-72
2022/01/31 03:31:31;;;;;;;12.63;4.80;;;;;;;-0.00;56.92;100377.59;5003129;28;20037;-71
2022/01/31 03:33:58;;;;;;;9.82;3.63;;;;;;;-0.81;59.00;100376.09;4972838;28;20107;-71
2022/01/31 03:36:23;;;;;;;12.57;4.90;;;;;;;-0.23;57.32;100355.44;5014422;28;20065;-71
2022/01/31 03:38:49;;;;;;;18.80;6.28;;;;;;;-0.19;57.59;100339.16;4997269;28;20052;-71
2022/01/31 03:41:18;;;;;;;12.27;4.53;;;;;;;-0.00;56.75;100336.50;5026581;28;20033;-72
2022/01/31 03:43:44;;;;;;;8.70;4.43;;;;;;;-1.35;60.74;100329.03;4994392;28;20043;-71
2022/01/31 03:46:10;;;;;;;9.13;4.97;;;;;;;-0.56;58.79;100326.44;5003730;28;20033;-71
2022/01/31 03:48:36;;;;;;;12.18;4.50;;;;;;;-0.50;58.64;100314.44;4968374;28;20153;-71
2022/01/31 03:51:10;;;;;;;18.73;4.75;;;;;;;-0.52;57.92;100303.34;5006514;28;20034;-71
2022/01/31 03:53:36;;;;;;;17.15;3.78;;;;;;;-0.83;58.34;100296.56;4994950;28;20049;-73
2022/01/31 03:56:02;;;;;;;13.80;4.20;;;;;;;-0.96;59.02;100287.19;5012093;28;20121;-72
2022/01/31 03:58:36;;;;;;;9.48;4.57;;;;;;;0.16;56.57;100286.72;5002526;28;20045;-72
2022/01/31 04:01:10;;;;;;;12.23;4.85;;;;;;;0.16;56.05;100281.56;5008097;28;20030;-72
2022/01/31 04:03:35;;;;;;;12.27;5.68;;;;;;;-0.63;58.11;100273.41;4990111;28;20059;-72
2022/01/31 04:06:01;;;;;;;16.65;5.75;;;;;;;-0.67;58.58;100274.28;5005010;28;20498;-72
2022/01/31 04:08:26;;;;;;;10.32;4.85;;;;;;;-0.22;57.47;100259.53;4977081;28;20550;-72
2022/01/31 04:10:52;;;;;;;14.10;5.43;;;;;;;-0.03;56.95;100249.16;5002477;28;20119;-72
2022/01/31 04:13:18;;;;;;;15.38;6.03;;;;;;;-0.11;56.85;100244.06;4982347;28;20057;-72
2022/01/31 04:15:44;;;;;;;15.50;5.13;;;;;;;0.01;56.61;100237.97;5023564;28;20756;-72
2022/01/31 04:18:10;;;;;;;10.15;5.10;;;;;;;0.30;56.09;100229.22;5005936;28;20493;-72
2022/01/31 04:20:36;;;;;;;12.68;5.20;;;;;;;0.49;55.44;100217.94;5011063;28;20509;-71
2022/01/31 04:23:10;;;;;;;16.40;6.00;;;;;;;-0.16;57.29;100209.84;4996153;28;20086;-72
2022/01/31 04:25:51;;;;;;;14.02;5.43;;;;;;;0.13;56.08;100212.22;5013834;28;20049;-73
2022/01/31 04:28:31;;;;;;;13.93;6.67;;;;;;;-0.16;57.40;100203.00;5014496;28;20053;-72
2022/01/31 04:31:44;;;;;;;10.02;4.60;;;;;;;0.18;56.47;100191.63;5021388;28;20045;-72
2022/01/31 04:33:48;;;;;;;14.65;5.32;;;;;;;0.13;56.61;100188.25;4987026;28;20097;-73
2022/01/31 04:36:14;;;;;;;10.27;4.13;;;;;;;0.01;57.24;100190.03;5023432;28;20494;-73
2022/01/31 04:38:45;;;;;;;11.38;5.32;;;;;;;-0.08;57.23;100169.56;4995527;28;20198;-73
2022/01/31 04:41:10;;;;;;;12.93;5.70;;;;;;;0.10;56.78;100176.28;5022807;28;20680;-72
2022/01/31 04:43:36;;;;;;;10.98;5.45;;;;;;;-0.14;57.40;100160.16;5022555;28;20025;-72
2022/01/31 04:46:05;;;;;;;9.38;4.72;;;;;;;0.23;56.02;100157.31;5021996;28;20119;-72
2022/01/31 04:48:30;;;;;;;6.45;4.72;;;;;;;0.05;56.85;100152.31;4994344;28;20136;-72
2022/01/31 04:50:56;;;;;;;6.88;4.18;;;;;;;0.21;56.36;100150.47;5021260;28;20722;-72
2022/01/31 04:53:22;;;;;;;10.93;5.15;;;;;;;-0.71;58.43;100146.81;4995741;28;20581;-73
2022/01/31 04:55:47;;;;;;;10.75;4.45;;;;;;;0.09;56.79;100137.75;5018880;28;20040;-72
2022/01/31 04:58:13;;;;;;;10.85;5.75;;;;;;;0.09;56.86;100136.00;4995171;28;20426;-71
2022/01/31 05:00:39;;;;;;;7.40;4.47;;;;;;;-0.03;56.60;100138.69;5022403;28;20094;-71
2022/01/31 05:03:12;;;;;;;11.18;4.63;;;;;;;-0.21;57.00;100129.41;5020936;28;20136;-71
2022/01/31 05:05:38;;;;;;;9.93;3.88;;;;;;;0.06;55.41;100120.63;5021479;28;20429;-72
2022/01/31 05:08:04;;;;;;;7.22;4.85;;;;;;;-0.51;56.98;100109.91;5027006;28;20346;-71
2022/01/31 05:10:29;;;;;;;7.05;4.05;;;;;;;-0.49;56.82;100106.47;5027429;28;20151;-71
2022/01/31 05:12:55;;;;;;;8.48;4.90;;;;;;;-0.53;56.27;100088.53;4991872;28;20052;-71
2022/01/31 05:15:20;;;;;;;9.93;5.90;;;;;;;-0.63;56.83;100098.88;5023276;28;20064;-72
2022/01/31 05:17:45;;;;;;;11.13;4.63;;;;;;;-0.80;57.75;100095.53;4994805;28;20490;-72
2022/01/31 05:20:11;;;;;;;7.28;4.60;;;;;;;-0.71;57.58;100085.22;5027947;28;20110;-72
2022/01/31 05:22:37;;;;;;;8.50;4.82;;;;;;;-0.91;58.10;100081.94;4992779;28;20049;-72
2022/01/31 05:25:02;;;;;;;8.10;4.45;;;;;;;-0.57;57.07;100075.75;5013843;28;20159;-72
2022/01/31 05:27:28;;;;;;;8.18;4.57;;;;;;;-0.29;56.54;100062.69;4998346;28;20044;-72
2022/01/31 05:29:53;;;;;;;8.27;5.10;;;;;;;-1.05;58.76;100064.88;5032345;28;20680;-71
2022/01/31 05:32:19;;;;;;;7.57;4.10;;;;;;;-0.66;58.26;100060.41;4994492;28;20656;-72
2022/01/31 05:34:44;;;;;;;12.15;5.43;;;;;;;-0.17;56.94;100057.47;5024556;28;20567;-73
2022/01/31 05:37:09;;;;;;;8.80;5.05;;;;;;;-0.53;58.05;100052.59;5020490;28;20504;-73
2022/01/31 05:39:35;;;;;;;7.68;5.43;;;;;;;-0.26;57.06;100048.97;5021705;28;20132;-74
2022/01/31 05:42:00;;;;;;;8.02;5.28;;;;;;;-0.28;57.52;100051.56;4998241;28;20133;-74
2022/01/31 05:44:26;;;;;;;9.35;5.18;;;;;;;-0.47;58.29;100047.44;5023783;28;20434;-73
2022/01/31 05:46:52;;;;;;;9.38;5.50;;;;;;;-0.30;57.97;100035.31;5017147;28;20478;-73
2022/01/31 05:49:18;;;;;;;7.90;4.65;;;;;;;-0.32;58.09;100037.03;5009695;28;20520;-71
2022/01/31 05:52:02;;;;;;;13.10;5.22;;;;;;;-0.02;57.71;100042.75;5025946;28;20037;-72
2022/01/31 05:54:29;;;;;;;8.68;4.75;;;;;;;-0.20;58.15;100034.34;5025248;28;20080;-73
2022/01/31 05:56:59;;;;;;;10.20;5.63;;;;;;;0.13;57.35;100032.34;5006733;28;20021;-74
2022/01/31 05:59:24;;;;;;;6.18;4.30;;;;;;;0.13;57.51;100026.34;5039206;28;20052;-74
2022/01/31 06:01:50;;;;;;;12.02;5.38;;;;;;;0.46;56.91;100027.69;5024364;28;20033;-73
2022/01/31 06:04:16;;;;;;;12.57;6.00;;;;;;;0.36;57.13;100018.38;5022914;28;20433;-73
2022/01/31 06:06:41;;;;;;;9.40;5.13;;;;;;;0.52;57.19;100013.91;5025369;28;20501;-72
2022/01/31 06:09:07;;;;;;;11.00;5.15;;;;;;;0.64;57.19;100012.03;5014427;28;20437;-74
2022/01/31 06:11:34;;;;;;;9.55;4.88;;;;;;;0.83;56.78;100007.50;5008788;28;20403;-73
2022/01/31 06:14:10;;;;;;;11.73;5.75;;;;;;;0.75;57.33;100017.06;4996732;28;20041;-70
2022/01/31 06:16:35;;;;;;;10.23;4.82;;;;;;;0.69;57.97;100011.97;5023219;28;20382;-72
2022/01/31 06:19:01;;;;;;;11.63;5.20;;;;;;;0.74;57.44;100015.34;4997530;28;20041;-72
2022/01/31 06:21:27;;;;;;;11.05;4.80;;;;;;;0.96;57.16;100012.47;5028679;28;20041;-71
2022/01/31 06:23:53;;;;;;;8.07;4.15;;;;;;;0.75;57.91;100013.59;5026546;28;20056;-71
2022/01/31 06:26:20;;;;;;;11.43;5.18;;;;;;;0.86;58.29;100009.19;5005858;28;20362;-71
2022/01/31 06:28:55;;;;;;;11.98;5.10;;;;;;;1.21;57.63;100007.81;4988211;28;20585;-71
2022/01/31 06:31:29;;;;;;;10.95;4.68;;;;;;;1.39;57.23;100006.69;5024953;28;20069;-71
2022/01/31 06:33:55;;;;;;;9.25;4.38;;;;;;;1.55;56.88;100009.91;4998954;28;20048;-71
2022/01/31 06:36:23;;;;;;;16.35;4.55;;;;;;;1.62;56.59;100004.63;5029525;28;20033;-70
2022/01/31 06:38:49;;;;;;;7.70;4.03;;;;;;;1.49;57.12;100003.13;5012988;28;20064;-69
2022/01/31 06:41:17;;;;;;;10.88;4.35;;;;;;;1.38;57.38;100011.00;5025966;28;20056;-71
2022/01/31 06:43:43;;;;;;;13.23;5.13;;;;;;;1.50;57.26;100003.09;5030086;28;20072;-71
2022/01/31 06:46:09;;;;;;;11.60;4.97;;;;;;;1.62;56.84;100001.22;5008831;28;20039;-72
2022/01/31 06:48:35;;;;;;;8.57;4.03;;;;;;;1.77;56.45;100000.91;4988760;28;20077;-71
2022/01/31 06:51:00;;;;;;;8.68;5.05;;;;;;;1.72;56.59;99995.00;5026767;28;20612;-71
2022/01/31 06:53:28;;;;;;;10.10;4.93;;;;;;;1.66;56.88;99993.41;5024116;28;20048;-72
2022/01/31 06:55:54;;;;;;;10.68;5.60;;;;;;;1.82;56.93;99983.69;5023954;28;20041;-72
2022/01/31 06:58:20;;;;;;;11.60;4.05;;;;;;;1.90;56.46;99989.53;5016751;28;20131;-72
2022/01/31 07:00:46;;;;;;;7.82;3.85;;;;;;;1.96;56.42;99983.41;5024798;28;20426;-70
2022/01/31 07:03:13;;;;;;;9.88;4.20;;;;;;;1.76;56.73;99981.19;5024533;28;20116;-71
2022/01/31 07:05:45;;;;;;;12.40;4.80;;;;;;;1.94;56.50;99980.03;5038809;28;20036;-70
2022/01/31 07:08:12;;;;;;;16.33;4.38;;;;;;;1.76;56.92;99980.34;5000135;28;20481;-72
2022/01/31 07:10:38;;;;;;;8.50;3.83;;;;;;;1.87;56.31;99984.44;5029044;28;20540;-71
2022/01/31 07:13:34;;;;;;;10.52;4.50;;;;;;;1.75;56.79;99979.47;4995025;28;20057;-70
2022/01/31 07:15:59;;;;;;;8.13;3.72;;;;;;;1.78;56.78;99981.19;5023737;28;20364;-72
2022/01/31 07:18:24;;;;;;;6.78;4.03;;;;;;;1.78;56.21;99987.19;5025250;28;20450;-71
2022/01/31 07:20:52;;;;;;;9.00;3.53;;;;;;;1.55;56.67;99981.56;5026476;28;22101;-70
2022/01/31 07:23:25;;;;;;;8.20;4.50;;;;;;;1.67;56.59;99986.53;5028889;28;20402;-70
2022/01/31 07:25:51;;;;;;;11.88;4.82;;;;;;;1.74;56.66;99988.09;5027752;28;20039;-70
2022/01/31 07:28:16;;;;;;;10.82;4.38;;;;;;;1.77;56.45;99993.19;5022354;28;20044;-70
2022/01/31 07:30:47;;;;;;;13.55;4.82;;;;;;;1.78;56.33;99984.59;5008994;28;20393;-70
2022/01/31 07:33:13;;;;;;;6.40;3.05;;;;;;;1.79;56.18;99991.44;5023481;28;20045;-72
2022/01/31 07:35:40;;;;;;;13.05;3.80;;;;;;;1.81;56.43;99994.00;5024037;28;20063;-71
2022/01/31 07:38:06;;;;;;;12.90;3.40;;;;;;;1.89;56.29;99993.00;4996661;28;20164;-71
2022/01/31 07:40:31;;;;;;;14.93;4.53;;;;;;;1.89;56.71;100003.28;5023222;28;20047;-73
2022/01/31 07:42:57;;;;;;;18.02;5.47;;;;;;;1.83;56.41;99998.25;4996174;28;20045;-71
2022/01/31 07:45:22;;;;;;;19.75;5.18;;;;;;;1.78;57.12;100015.53;5022708;28;20057;-71
2022/01/31 07:47:48;;;;;;;17.52;5.65;;;;;;;1.92;57.09;100018.69;5021144;28;20124;-71
2022/01/31 07:50:14;;;;;;;19.85;6.03;;;;;;;2.05;57.02;100008.19;5037885;28;20436;-71
2022/01/31 07:52:41;;;;;;;9.88;4.45;;;;;;;2.22;56.74;100013.00;5021926;28;20095;-72
2022/01/31 07:55:07;;;;;;;12.15;2.50;;;;;;;2.03;57.17;100022.81;5022133;28;20032;-71
2022/01/31 07:57:34;;;;;;;11.85;4.03;;;;;;;2.28;56.79;100013.72;5020319;28;20033;-72
2022/01/31 08:00:01;;;;;;;5.97;1.40;;;;;;;2.48;56.78;100027.97;5028980;28;20126;-71
2022/01/31 08:02:27;;;;;;;10.95;1.08;;;;;;;2.50;57.23;100021.06;5018022;28;20706;-71
2022/01/31 08:04:54;;;;;;;7.97;1.15;;;;;;;2.39;57.41;100017.84;5020873;28;20379;-72
2022/01/31 08:07:21;;;;;;;10.75;0.85;;;;;;;2.53;57.68;100015.81;5038089;28;20056;-72
2022/01/31 08:09:47;;;;;;;7.97;1.38;;;;;;;2.71;57.07;100020.63;5005544;28;20032;-74
2022/01/31 08:12:13;;;;;;;8.48;0.80;;;;;;;2.54;57.46;100013.22;4997310;28;20050;-73
2022/01/31 08:14:39;;;;;;;8.50;1.05;;;;;;;2.66;57.16;100022.44;5021053;28;20545;-73
2022/01/31 08:17:05;;;;;;;21.52;1.10;;;;;;;2.62;57.16;100025.94;5020454;28;20123;-73
2022/01/31 08:19:31;;;;;;;7.00;0.45;;;;;;;2.72;57.27;100016.31;5023448;28;20029;-74
2022/01/31 08:21:56;;;;;;;9.85;0.85;;;;;;;2.69;57.27;100027.53;5022383;28;20044;-73
2022/01/31 08:24:22;;;;;;;12.15;1.77;;;;;;;2.89;56.85;100028.84;5022965;28;20025;-73
2022/01/31 08:26:48;;;;;;;8.93;0.75;;;;;;;2.64;57.69;100037.09;5024452;28;20760;-73
2022/01/31 08:29:30;;;;;;;9.77;1.13;;;;;;;2.16;58.90;100037.19;5021113;28;20095;-71
2022/01/31 08:31:57;;;;;;;6.82;0.88;;;;;;;2.62;57.80;100036.25;5022795;28;20037;-71
2022/01/31 08:37:07;;;;;;;10.38;0.45;;;;;;;2.64;58.07;100042.25;5022455;28;20045;-72
2022/01/31 08:39:33;;;;;;;5.95;1.20;;;;;;;2.83;57.30;100032.41;5022110;28;20037;-71
2022/01/31 08:41:58;;;;;;;3.95;0.30;;;;;;;2.69;57.69;100037.88;5035640;28;20041;-71
2022/01/31 08:44:24;;;;;;;12.77;1.17;;;;;;;3.17;56.56;100042.84;5023128;28;20061;-71
2022/01/31 08:46:51;;;;;;;14.70;0.80;;;;;;;2.90;57.12;100043.44;5019623;28;20722;-71
2022/01/31 08:49:17;;;;;;;8.52;0.63;;;;;;;3.09;56.63;100042.19;5029336;28;20550;-71
2022/01/31 08:51:45;;;;;;;10.75;0.93;;;;;;;3.16;56.34;100038.56;5007403;28;20037;-71
2022/01/31 08:54:12;;;;;;;8.52;1.38;;;;;;;3.46;56.08;100040.50;5020231;28;20167;-71
2022/01/31 08:56:44;;;;;;;10.93;0.95;;;;;;;3.35;56.02;100038.16;5023048;28;20791;-71
2022/01/31 08:59:17;;;;;;;6.55;1.08;;;;;;;3.48;55.74;100052.50;5020190;28;20045;-71
2022/01/31 09:01:52;;;;;;;4.70;0.73;;;;;;;3.50;56.33;100061.06;5020345;28;20098;-72
2022/01/31 09:07:19;;;;;;;4.43;0.65;;;;;;;3.54;55.29;100047.19;5012309;28;20469;-71
2022/01/31 09:09:52;;;;;;;11.33;1.57;;;;;;;3.86;54.93;100050.72;5022088;28;20045;-72
2022/01/31 09:12:19;;;;;;;14.35;2.13;;;;;;;4.11;55.18;100071.63;4997185;28;20748;-71
2022/01/31 09:14:45;;;;;;;7.95;0.60;;;;;;;4.27;54.23;100066.88;5030033;28;20021;-72
2022/01/31 09:17:11;;;;;;;4.57;0.47;;;;;;;4.32;54.06;100070.22;5028747;28;20041;-72
2022/01/31 09:19:37;;;;;;;7.28;1.25;;;;;;;4.29;53.97;100075.44;5020766;28;20044;-72
2022/01/31 09:22:03;;;;;;;14.75;0.90;;;;;;;4.52;53.86;100092.09;5026102;28;20086;-72
2022/01/31 09:24:29;;;;;;;12.32;1.25;;;;;;;4.49;53.91;100089.59;5040504;28;20037;-72
2022/01/31 09:26:56;;;;;;;9.35;0.90;;;;;;;4.53;54.09;100093.81;5023525;28;20052;-74
2022/01/31 09:29:21;;;;;;;5.57;0.88;;;;;;;4.51;53.86;100103.34;5037506;28;20405;-72
2022/01/31 09:31:47;;;;;;;10.45;1.13;;;;;;;4.47;53.66;100099.97;5022357;28;20509;-71
2022/01/31 09:34:12;;;;;;;10.75;1.00;;;;;;;4.38;53.91;100101.06;5021173;28;20502;-73
2022/01/31 09:36:39;;;;;;;9.07;0.93;;;;;;;4.57;53.68;100096.28;5023384;28;20040;-71
2022/01/31 09:39:04;;;;;;;8.90;0.82;;;;;;;4.62;54.30;100093.56;5022222;28;20033;-71
2022/01/31 09:41:32;;;;;;;13.25;1.38;;;;;;;4.81;54.01;100099.91;5022873;28;20035;-72
2022/01/31 09:49:19;;;;;;;9.23;0.82;;;;;;;5.07;54.08;100116.47;5024487;28;20199;-72
2022/01/31 09:51:46;;;;;;;6.47;1.23;;;;;;;5.37;52.07;100124.22;5023352;28;20416;-72
2022/01/31 09:54:11;;;;;;;13.60;1.25;;;;;;;5.56;52.38;100135.72;5021355;28;20049;-72
2022/01/31 09:56:43;;;;;;;11.95;0.68;;;;;;;5.45;52.37;100143.81;5038799;28;20045;-72
2022/01/31 09:59:10;;;;;;;18.73;1.20;;;;;;;5.48;52.34;100142.03;5021815;28;20498;-72
2022/01/31 10:01:47;;;;;;;5.65;0.55;;;;;;;5.09;52.64;100147.50;5023041;28;20469;-72
2022/01/31 10:04:21;;;;;;;5.25;0.55;;;;;;;5.24;52.52;100155.69;5009160;28;20043;-72
2022/01/31 10:06:49;;;;;;;6.93;0.60;;;;;;;4.84;53.75;100150.75;5020708;28;20040;-72
2022/01/31 10:09:20;;;;;;;12.90;0.80;;;;;;;5.12;53.48;100161.22;5022307;28;20051;-72
2022/01/31 10:12:04;;;;;;;7.72;0.75;;;;;;;4.90;53.36;100171.34;5019923;28;20481;-72
2022/01/31 10:17:28;;;;;;;12.65;0.57;;;;;;;4.87;54.11;100178.31;5020114;28;20055;-72
2022/01/31 10:19:58;;;;;;;9.02;1.85;;;;;;;4.64;54.39;100185.78;5004529;28;20146;-71
2022/01/31 10:22:26;;;;;;;6.97;0.40;;;;;;;4.82;53.92;100184.44;5022044;28;20044;-71
2022/01/31 10:24:54;;;;;;;5.53;0.60;;;;;;;4.62;54.26;100189.31;5035719;28;20044;-72
2022/01/31 10:27:23;;;;;;;15.70;0.60;;;;;;;4.79;53.82;100189.72;5020579;28;20071;-72
2022/01/31 10:29:51;;;;;;;16.55;1.13;;;;;;;5.45;53.11;100189.63;5021689;28;20564;-72
2022/01/31 10:32:28;;;;;;;6.30;0.68;;;;;;;5.72;51.96;100181.91;5019631;28;20041;-72
2022/01/31 10:34:57;;;;;;;7.63;1.10;;;;;;;5.70;52.24;100189.72;5022192;28;20048;-72
2022/01/31 10:37:23;;;;;;;9.18;0.22;;;;;;;5.82;51.90;100202.34;5020080;28;20099;-72
2022/01/31 10:51:19;;;;;;;15.45;0.43;;;;;;;5.15;53.16;100215.53;5019895;28;20039;-71
2022/01/31 10:53:55;;;;;;;11.05;0.98;;;;;;;5.09;52.76;100201.91;5019557;28;20863;-72
2022/01/31 10:56:20;;;;;;;6.07;0.65;;;;;;;5.64;52.05;100211.53;5020748;28;20033;-71
2022/01/31 10:59:03;;;;;;;11.32;0.60;;;;;;;5.50;52.45;100212.81;5017334;28;20510;-71
2022/01/31 11:01:29;;;;;;;13.02;1.75;;;;;;;5.59;52.56;100221.19;5022412;28;20052;-71
2022/01/31 11:03:56;;;;;;;9.32;1.27;;;;;;;4.87;54.63;100223.16;5004110;28;20045;-71
2022/01/31 11:06:24;;;;;;;15.95;0.98;;;;;;;4.78;54.94;100226.84;5002328;28;20117;-71
2022/01/31 11:08:51;;;;;;;12.57;1.55;;;;;;;5.33;53.50;100231.47;4999781;28;20562;-71
2022/01/31 11:11:17;;;;;;;12.77;1.45;;;;;;;5.20;53.87;100226.63;5003752;28;20053;-71
2022/01/31 11:13:44;;;;;;;13.05;2.33;;;;;;;5.25;53.57;100224.75;4977376;28;20198;-72
2022/01/31 11:16:12;;;;;;;13.30;1.08;;;;;;;4.91;54.42;100236.94;5023776;28;20033;-72
2022/01/31 11:18:42;;;;;;;16.95;2.22;;;;;;;5.24;54.31;100243.78;5007658;28;20549;-72
2022/01/31 11:21:08;;;;;;;9.82;0.50;;;;;;;5.50;53.74;100257.72;5003654;28;20065;-72
2022/01/31 11:23:41;;;;;;;14.68;0.68;;;;;;;5.59;53.58;100262.69;5015809;28;20025;-71
2022/01/31 11:26:09;;;;;;;12.48;1.67;;;;;;;4.52;55.51;100262.91;4999943;28;20479;-71
2022/01/31 11:28:38;;;;;;;12.32;2.85;;;;;;;4.76;55.32;100270.06;5014834;28;20038;-72
2022/01/31 11:31:04;;;;;;;13.25;2.20;;;;;;;4.45;56.36;100271.72;5007465;28;20033;-72
2022/01/31 11:33:30;;;;;;;9.55;1.02;;;;;;;4.74;55.81;100279.59;5003023;28;20088;-72
2022/01/31 11:35:56;;;;;;;15.02;1.48;;;;;;;4.63;56.02;100281.59;5015943;28;20552;-72
2022/01/31 11:38:21;;;;;;;10.38;1.10;;;;;;;4.74;55.36;100291.69;4997880;28;20045;-72
2022/01/31 11:40:48;;;;;;;12.07;1.67;;;;;;;4.79;54.86;100303.66;5020962;28;20402;-72
2022/01/31 11:43:16;;;;;;;4.78;0.40;;;;;;;4.64;54.97;100319.56;5023034;28;20052;-71
2022/01/31 11:45:44;;;;;;;5.20;0.60;;;;;;;4.59;54.90;100306.72;5001136;28;20075;-71
2022/01/31 11:48:17;;;;;;;14.48;1.25;;;;;;;4.84;54.78;100319.06;5005863;28;20287;-71
2022/01/31 11:50:45;;;;;;;5.50;0.82;;;;;;;5.24;52.91;100328.44;5000056;28;20037;-72
2022/01/31 11:53:11;;;;;;;9.10;1.83;;;;;;;4.84;53.93;100337.19;4999761;28;20437;-71
2022/01/31 11:55:41;;;;;;;4.90;1.67;;;;;;;4.88;53.22;100346.63;5009981;28;20108;-72
2022/01/31 11:58:14;;;;;;;8.07;2.08;;;;;;;5.11;53.14;100361.59;5006120;28;20124;-72